Stone Cabin, Nevada Weather observations

Data are for observation ending at time listed.
 Day   Time    Ave.   Ave.  Ave.  Vector   Max.   Stn.    Total    Solar   Ave.  
  of    of     Air    Rel.  Wind   Wind    Wind   Baro.  Precip.   Rad.    Soil  
Year   Day     Temp.  Hum.  Speed  Dir.    Gust   Pres.                    Temp. 
2015   (PST)    F      %     mph   deg.    mph     mb.     in.     W/m2     F   
------------------------------------------------------------------------------
 210   10:00   82.8    13    1.2   122      4.9    827     0.00     874    68.4
 210   11:00   85.2    11    1.9   238      9.0    825     0.00     987    70.9
 210   12:00   86.6    10    3.4   163     15.7    823     0.00    1039    73.7
 210   13:00   87.9    10    3.5   171     13.6    823     0.00    1026    75.1
 210   14:00   88.3     9    3.9   226     12.3    820     0.00     951    74.6
 210   15:00   88.8     8    3.7   255     14.4    818     0.00     821    75.6
 210   16:00   89.2     9    3.6   210     13.3    821     0.00     645    75.9
 210   17:00   91.2     9    0.9   140      3.2    820     0.00     445    75.3
 210   18:00   88.1     9    3.2   221     16.4    822     0.00     236    74.7
 210   19:00   84.0    10    0.6   275      5.0    823     0.00      54    74.1
 210   20:00   73.6    12    0.8   200      2.8    823     0.00       2    73.2
 210   21:00   67.7    14    0.5   322      3.3    823     0.00       0    71.8
 210   22:00   64.7    18    0.9   357      2.9    825     0.00       0    70.6
 210   23:00   58.6    21    1.4   311      2.9    824     0.00       0    69.6
 211    0:00   58.9    18    1.3   266      7.4    825     0.00       0    68.6
 211    1:00   56.1    21    1.1   313      4.5    823     0.00       0    67.9
 211    2:00   53.7    23    1.1   294      4.1    820     0.00       0    67.1
 211    3:00   52.6    25    0.9   296      3.0    819     0.00       0    66.4
 211    4:00   49.2    27    1.2   284      3.9    822     0.00       0    65.8
 211    5:00   49.5    28    1.2   284      3.5    818     0.00       2    65.2
 211    6:00   51.8    29    1.7   328      5.8    819     0.00      16    64.6
 211    7:00   57.6    30    0.7   321      3.0    819     0.00     156    64.4
 211    8:00   71.6    22    0.3   119      2.5    820     0.00     496    64.7
 211    9:00   80.8    19    1.2   228      5.8    821     0.00     671    66.3

Return to Stone Cabin, Nevada graphs page.


Western Regional Climate Center,wrcc@dri.edu